createdAt,value
2019-01-20T00:00:01.980Z,13.23
2019-01-20T00:02:49.074Z,14.07
2019-01-20T00:05:36.284Z,19.27
2019-01-20T00:08:23.748Z,20.10
2019-01-20T00:11:16.561Z,14.50
2019-01-20T00:13:58.369Z,13.20
2019-01-20T00:16:45.914Z,13.77
2019-01-20T00:19:33.588Z,11.63
2019-01-20T00:22:20.822Z,13.00
2019-01-20T00:25:08.331Z,12.17
2019-01-20T00:27:55.691Z,12.93
2019-01-20T00:30:43.454Z,13.10
2019-01-20T00:33:31.111Z,13.03
2019-01-20T00:36:18.408Z,18.90
2019-01-20T00:39:06.939Z,13.83
2019-01-20T00:41:58.762Z,19.27
2019-01-20T00:44:46.117Z,14.20
2019-01-20T00:47:33.878Z,14.70
2019-01-20T00:50:21.270Z,19.87
2019-01-20T00:53:08.862Z,14.80
2019-01-20T00:55:56.167Z,14.23
2019-01-20T00:58:51.247Z,13.70
2019-01-20T01:01:39.116Z,12.77
2019-01-20T01:04:26.433Z,12.17
2019-01-20T01:07:21.807Z,20.65
2019-01-20T01:10:08.854Z,20.10
2019-01-20T01:12:55.829Z,15.50
2019-01-20T01:15:43.356Z,14.90
2019-01-20T01:18:31.837Z,13.87
2019-01-20T01:21:28.529Z,13.13
2019-01-20T01:24:15.936Z,13.20
2019-01-20T01:27:03.728Z,13.90
2019-01-20T01:29:51.153Z,13.70
2019-01-20T01:35:45.163Z,13.13
2019-01-20T01:38:32.255Z,12.67
2019-01-20T01:41:19.630Z,13.43
2019-01-20T01:44:06.995Z,13.53
2019-01-20T01:46:54.516Z,12.23
2019-01-20T01:49:41.955Z,12.83
2019-01-20T01:52:29.850Z,12.87
2019-01-20T01:55:17.247Z,12.13
2019-01-20T01:58:05.342Z,13.70
2019-01-20T02:00:53.067Z,13.33
2019-01-20T02:03:40.247Z,11.90
2019-01-20T02:06:30.161Z,11.50
2019-01-20T02:09:30.110Z,12.30
2019-01-20T02:12:18.050Z,12.30
2019-01-20T02:15:05.975Z,11.70
2019-01-20T02:17:54.037Z,12.53
2019-01-20T02:20:41.794Z,11.50
2019-01-20T02:23:29.960Z,12.27
2019-01-20T02:26:19.360Z,12.43
2019-01-20T02:29:06.912Z,12.83
2019-01-20T02:31:55.390Z,20.65
2019-01-20T02:34:42.504Z,20.70
2019-01-20T02:37:29.374Z,14.73
2019-01-20T02:40:18.167Z,13.60
2019-01-20T02:43:05.586Z,18.83
2019-01-20T02:45:52.771Z,15.03
2019-01-20T02:48:40.512Z,13.23
2019-01-20T02:51:29.092Z,12.37
2019-01-20T02:54:17.011Z,12.30
2019-01-20T02:57:04.608Z,11.63
2019-01-20T02:59:52.375Z,11.63
2019-01-20T03:02:40.096Z,12.03
2019-01-20T03:05:27.063Z,12.47
2019-01-20T03:08:14.343Z,18.60
2019-01-20T03:11:01.625Z,19.12
2019-01-20T03:13:49.287Z,14.77
2019-01-20T03:16:37.138Z,13.40
2019-01-20T03:19:24.375Z,12.10
2019-01-20T03:22:12.562Z,19.25
2019-01-20T03:25:00.432Z,14.30
2019-01-20T03:27:48.028Z,13.10
2019-01-20T03:30:36.045Z,12.17
2019-01-20T03:33:23.610Z,12.53
2019-01-20T03:36:11.309Z,12.93
2019-01-20T03:38:58.719Z,13.70
2019-01-20T03:44:52.019Z,12.63
2019-01-20T03:47:39.404Z,13.83
2019-01-20T03:53:39.708Z,21.87
2019-01-20T03:56:26.952Z,21.58
2019-01-20T04:02:20.568Z,20.08
2019-01-20T04:05:08.703Z,13.93
2019-01-20T04:07:56.653Z,13.27
2019-01-20T04:10:44.237Z,12.83
2019-01-20T04:13:31.543Z,12.30
2019-01-20T04:16:19.013Z,13.20
2019-01-20T04:19:07.308Z,11.83
2019-01-20T04:21:57.695Z,13.17
2019-01-20T04:24:53.058Z,12.93
2019-01-20T04:27:40.871Z,20.10
2019-01-20T04:30:28.662Z,13.83
2019-01-20T04:33:16.095Z,14.17
2019-01-20T04:36:03.283Z,13.13
2019-01-20T04:38:50.757Z,12.23
2019-01-20T04:41:38.254Z,12.47
2019-01-20T04:44:26.914Z,13.20
2019-01-20T04:47:15.938Z,12.53
2019-01-20T04:50:04.129Z,12.73
2019-01-20T04:52:53.198Z,13.97
2019-01-20T04:55:40.830Z,13.67
2019-01-20T04:58:28.347Z,14.07
2019-01-20T05:01:19.096Z,14.03
2019-01-20T05:04:06.288Z,14.53
2019-01-20T05:06:56.465Z,14.50
2019-01-20T05:09:42.933Z,13.27
2019-01-20T05:12:37.585Z,14.97
2019-01-20T05:15:20.934Z,12.57
2019-01-20T05:18:08.460Z,13.03
2019-01-20T05:20:56.106Z,13.87
2019-01-20T05:23:43.845Z,12.70
2019-01-20T05:26:31.564Z,12.67
2019-01-20T05:29:19.368Z,14.43
2019-01-20T05:32:07.357Z,12.97
2019-01-20T05:34:56.980Z,13.33
2019-01-20T05:37:55.009Z,13.50
2019-01-20T05:40:45.330Z,13.57
2019-01-20T05:43:33.801Z,14.20
2019-01-20T05:46:21.147Z,13.30
2019-01-20T05:49:08.685Z,13.87
2019-01-20T05:51:57.235Z,13.20
2019-01-20T05:54:45.216Z,13.93
2019-01-20T05:57:32.738Z,13.50
2019-01-20T06:00:20.836Z,12.93
2019-01-20T06:03:08.318Z,13.53
2019-01-20T06:05:55.537Z,24.33
2019-01-20T06:08:44.131Z,16.80
2019-01-20T06:11:31.075Z,14.77
2019-01-20T06:14:18.726Z,13.97
2019-01-20T06:17:05.949Z,14.03
2019-01-20T06:19:53.379Z,13.30
2019-01-20T06:22:40.693Z,13.33
2019-01-20T06:25:28.137Z,25.27
2019-01-20T06:28:15.681Z,16.60
2019-01-20T06:31:03.058Z,15.40
2019-01-20T06:33:50.709Z,14.20
2019-01-20T06:36:39.275Z,24.35
2019-01-20T06:39:27.217Z,17.37
2019-01-20T06:42:14.777Z,14.70
2019-01-20T06:45:02.261Z,14.43
2019-01-20T06:47:49.803Z,15.53
2019-01-20T06:50:37.422Z,21.85
2019-01-20T06:53:25.656Z,15.87
2019-01-20T06:56:13.284Z,23.00
2019-01-20T06:59:01.323Z,15.73
2019-01-20T07:01:48.996Z,22.77
2019-01-20T07:04:36.575Z,15.47
2019-01-20T07:07:24.036Z,15.37
2019-01-20T07:10:11.428Z,15.00
2019-01-20T07:12:59.015Z,24.83
2019-01-20T07:15:47.970Z,17.43
2019-01-20T07:18:36.020Z,27.42
2019-01-20T07:21:24.162Z,17.67
2019-01-20T07:24:11.860Z,16.17
2019-01-20T07:26:59.850Z,17.27
2019-01-20T07:29:47.469Z,16.37
2019-01-20T07:32:34.738Z,16.67
2019-01-20T07:35:23.417Z,15.67
2019-01-20T07:38:12.091Z,15.37
2019-01-20T07:40:59.844Z,24.73
2019-01-20T07:43:48.156Z,17.03
2019-01-20T07:46:36.001Z,15.70
2019-01-20T07:49:24.156Z,22.87
2019-01-20T07:52:11.976Z,18.83
2019-01-20T07:54:59.866Z,17.10
2019-01-20T07:57:47.550Z,17.83
2019-01-20T08:00:35.750Z,27.70
2019-01-20T08:03:23.193Z,18.37
2019-01-20T08:06:10.907Z,18.93
2019-01-20T08:08:59.450Z,18.70
2019-01-20T08:11:46.512Z,18.57
2019-01-20T08:14:34.233Z,17.80
2019-01-20T08:17:21.874Z,19.03
2019-01-20T08:20:21.161Z,19.50
2019-01-20T08:23:09.472Z,18.67
2019-01-20T08:29:04.772Z,19.10
2019-01-20T08:31:52.214Z,20.70
2019-01-20T08:34:39.922Z,21.37
2019-01-20T08:37:28.890Z,30.80
2019-01-20T08:40:20.654Z,22.10
2019-01-20T08:43:08.689Z,20.93
2019-01-20T08:46:02.817Z,21.20
2019-01-20T08:48:51.261Z,19.90
2019-01-20T08:51:39.484Z,20.10
2019-01-20T08:54:26.952Z,18.83
2019-01-20T08:57:14.998Z,18.87
2019-01-20T09:00:02.557Z,20.93
2019-01-20T09:02:50.215Z,20.10
2019-01-20T09:05:37.499Z,20.13
2019-01-20T09:08:24.876Z,20.60
2019-01-20T09:11:12.069Z,19.67
2019-01-20T09:13:59.514Z,20.23
2019-01-20T09:16:47.889Z,20.23
2019-01-20T09:19:35.050Z,20.53
2019-01-20T09:22:22.599Z,27.55
2019-01-20T09:25:12.151Z,22.40
2019-01-20T09:27:59.661Z,20.17
2019-01-20T09:30:50.900Z,19.73
2019-01-20T09:33:38.082Z,19.03
2019-01-20T09:36:25.627Z,20.33
2019-01-20T09:39:20.729Z,19.77
2019-01-20T09:42:08.280Z,20.63
2019-01-20T09:44:55.667Z,20.40
2019-01-20T09:47:43.190Z,28.05
2019-01-20T09:50:30.390Z,20.80
2019-01-20T09:53:17.977Z,23.07
2019-01-20T09:56:05.487Z,21.30
2019-01-20T09:58:52.820Z,20.53
2019-01-20T10:01:40.489Z,20.70
2019-01-20T10:04:27.728Z,20.03
2019-01-20T10:07:15.171Z,20.47
2019-01-20T10:10:02.616Z,19.50
2019-01-20T10:12:50.172Z,19.97
2019-01-20T10:15:37.545Z,18.67
2019-01-20T10:18:32.123Z,25.30
2019-01-20T10:21:22.325Z,21.33
2019-01-20T10:24:12.782Z,25.70
2019-01-20T10:27:00.313Z,21.67
2019-01-20T10:29:47.874Z,20.57
2019-01-20T10:32:35.599Z,19.80
2019-01-20T10:35:38.778Z,19.50
2019-01-20T10:38:26.101Z,20.50
2019-01-20T10:41:13.747Z,19.13
2019-01-20T10:44:02.403Z,24.15
2019-01-20T10:46:48.893Z,19.97
2019-01-20T10:49:44.454Z,18.63
2019-01-20T10:52:34.576Z,19.50
2019-01-20T10:55:22.052Z,18.43
2019-01-20T11:01:16.190Z,18.17
2019-01-20T11:04:08.718Z,22.65
2019-01-20T11:07:03.867Z,17.30
2019-01-20T11:09:52.783Z,18.20
2019-01-20T11:12:41.578Z,16.87
2019-01-20T11:15:29.077Z,22.50
2019-01-20T11:18:16.456Z,18.07
2019-01-20T11:24:17.868Z,18.97
2019-01-20T11:27:05.233Z,18.80
2019-01-20T11:29:52.647Z,22.95
2019-01-20T11:32:42.417Z,20.80
2019-01-20T11:35:28.555Z,18.33
2019-01-20T11:38:16.176Z,18.60
2019-01-20T11:41:03.608Z,17.83
2019-01-20T11:43:51.318Z,17.63
2019-01-20T11:46:38.802Z,17.60
2019-01-20T11:49:25.957Z,18.07
2019-01-20T11:52:13.647Z,18.00
2019-01-20T11:55:01.846Z,18.17
2019-01-20T11:57:54.152Z,17.87
2019-01-20T12:00:42.262Z,17.90
2019-01-20T12:03:38.616Z,17.37
2019-01-20T12:06:25.806Z,22.33
2019-01-20T12:09:13.311Z,22.50
2019-01-20T12:12:01.067Z,19.30
2019-01-20T12:14:50.464Z,21.52
2019-01-20T12:17:37.853Z,17.60
2019-01-20T12:20:25.319Z,20.92
2019-01-20T12:26:19.484Z,17.70
2019-01-20T12:29:06.662Z,23.83
2019-01-20T12:31:54.246Z,16.00
2019-01-20T12:34:42.111Z,16.60
2019-01-20T12:37:29.352Z,17.00
2019-01-20T12:40:41.334Z,18.13
2019-01-20T12:43:29.578Z,16.43
2019-01-20T12:46:17.905Z,21.15
2019-01-20T12:49:05.535Z,19.00
2019-01-20T12:51:53.254Z,17.77
2019-01-20T12:54:40.550Z,17.07
2019-01-20T12:57:27.900Z,15.17
2019-01-20T13:00:18.037Z,17.33
2019-01-20T13:03:05.576Z,15.30
2019-01-20T13:05:52.912Z,16.17
2019-01-20T13:08:40.519Z,16.40
2019-01-20T13:11:28.617Z,16.57
2019-01-20T13:17:22.228Z,17.37
2019-01-20T13:20:09.790Z,17.97
2019-01-20T13:22:57.699Z,18.27
2019-01-20T13:25:46.324Z,17.17
2019-01-20T13:28:33.727Z,15.17
2019-01-20T13:31:21.093Z,15.63
2019-01-20T13:34:08.525Z,14.90
2019-01-20T13:36:58.005Z,15.80
2019-01-20T13:39:45.172Z,14.37
2019-01-20T13:42:34.999Z,17.95
2019-01-20T13:45:23.302Z,16.57
2019-01-20T13:48:13.357Z,14.23
2019-01-20T13:51:02.146Z,13.97
2019-01-20T13:53:49.173Z,14.37
2019-01-20T13:56:36.552Z,15.60
2019-01-20T13:59:24.153Z,14.87
2019-01-20T14:02:11.540Z,14.10
2019-01-20T14:04:59.019Z,15.13
2019-01-20T14:07:46.763Z,14.73
2019-01-20T14:10:34.473Z,15.67
2019-01-20T14:13:22.038Z,14.67
2019-01-20T14:16:09.680Z,14.60
2019-01-20T14:19:07.358Z,15.40
2019-01-20T14:21:55.424Z,15.53
2019-01-20T14:24:44.914Z,15.43
2019-01-20T14:27:33.283Z,20.08
2019-01-20T14:30:20.906Z,15.90
2019-01-20T14:33:11.868Z,16.43
2019-01-20T14:36:00.530Z,16.03
2019-01-20T14:38:49.224Z,15.53
2019-01-20T14:41:36.659Z,16.60
2019-01-20T14:44:23.861Z,15.87
2019-01-20T14:47:11.572Z,16.50
2019-01-20T14:50:00.436Z,16.00
2019-01-20T14:52:47.646Z,16.50
2019-01-20T14:55:36.075Z,15.87
2019-01-20T14:58:23.064Z,21.40
2019-01-20T15:01:10.744Z,18.90
2019-01-20T15:03:59.226Z,16.80
2019-01-20T15:06:47.110Z,17.60
2019-01-20T15:09:34.462Z,16.53
2019-01-20T15:12:21.784Z,21.27
2019-01-20T15:15:09.711Z,21.30
2019-01-20T15:17:57.645Z,17.43
2019-01-20T15:20:45.942Z,16.27
2019-01-20T15:23:33.300Z,22.77
2019-01-20T15:26:24.142Z,17.80
2019-01-20T15:29:09.042Z,17.03
2019-01-20T15:31:58.588Z,15.90
2019-01-20T15:34:46.352Z,16.23
2019-01-20T15:37:35.430Z,15.37
2019-01-20T15:43:37.846Z,15.97
2019-01-20T15:46:34.199Z,15.07
2019-01-20T15:49:31.983Z,17.33
2019-01-20T15:52:24.096Z,15.47
2019-01-20T15:55:12.668Z,16.07
2019-01-20T15:57:59.828Z,16.80
2019-01-20T16:00:51.904Z,24.20
2019-01-20T16:03:40.204Z,18.37
2019-01-20T16:06:36.198Z,17.57
2019-01-20T16:09:29.208Z,17.60
2019-01-20T16:12:19.519Z,18.43
2019-01-20T16:18:19.272Z,17.50
2019-01-20T16:21:10.925Z,18.07
2019-01-20T16:24:00.440Z,17.53
2019-01-20T16:26:47.565Z,17.23
2019-01-20T16:29:36.630Z,17.93
2019-01-20T16:32:26.347Z,25.20
2019-01-20T16:35:16.330Z,18.73
2019-01-20T16:38:05.811Z,19.13
2019-01-20T16:40:55.655Z,17.80
2019-01-20T16:43:47.417Z,25.62
2019-01-20T16:46:37.695Z,18.90
2019-01-20T16:49:27.858Z,19.30
2019-01-20T17:14:08.181Z,19.50
2019-01-20T17:16:55.025Z,22.07
2019-01-20T17:19:57.974Z,28.03
2019-01-20T17:22:55.536Z,33.92
2019-01-20T17:25:42.844Z,25.30
2019-01-20T17:28:30.879Z,26.93
2019-01-20T17:34:26.684Z,22.50
2019-01-20T17:37:14.470Z,25.87
2019-01-20T17:40:03.309Z,25.43
2019-01-20T17:42:57.157Z,23.17
2019-01-20T17:45:53.298Z,22.80
2019-01-20T17:48:42.768Z,22.77
2019-01-20T17:51:30.021Z,19.23
2019-01-20T17:54:19.174Z,20.17
2019-01-20T17:57:06.981Z,25.57
2019-01-20T18:02:59.837Z,18.80
2019-01-20T18:05:49.894Z,21.60
2019-01-20T18:08:45.969Z,20.97
2019-01-20T18:11:33.308Z,30.73
2019-01-20T18:14:20.777Z,27.30
2019-01-20T18:17:07.660Z,22.57
2019-01-20T18:19:55.155Z,30.40
2019-01-20T18:22:42.841Z,22.33
2019-01-20T18:25:32.145Z,19.97
2019-01-20T18:28:20.653Z,29.75
2019-01-20T18:31:08.588Z,21.67
2019-01-20T18:33:55.947Z,31.40
2019-01-20T18:36:43.180Z,23.03
2019-01-20T18:39:33.108Z,20.60
2019-01-20T18:42:20.473Z,20.43
2019-01-20T18:45:23.412Z,21.20
2019-01-20T18:51:17.203Z,22.87
2019-01-20T18:54:04.792Z,21.83
2019-01-20T18:56:54.923Z,27.83
2019-01-20T18:59:42.116Z,25.70
2019-01-20T19:02:45.565Z,23.97
2019-01-20T19:08:47.063Z,22.10
2019-01-20T19:11:34.699Z,25.63
2019-01-20T19:17:28.066Z,27.57
2019-01-20T19:29:52.443Z,34.87
2019-01-20T19:32:40.019Z,23.83
2019-01-20T19:35:28.302Z,22.57
2019-01-20T19:38:14.431Z,22.70
2019-01-20T19:41:01.766Z,21.57
2019-01-20T19:43:49.609Z,22.10
2019-01-20T19:46:37.248Z,21.57
2019-01-20T19:49:25.050Z,19.67
2019-01-20T19:52:18.753Z,31.65
2019-01-20T19:55:10.057Z,23.10
2019-01-20T20:01:03.329Z,23.83
2019-01-20T20:03:51.461Z,21.50
2019-01-20T20:06:48.575Z,22.63
2019-01-20T20:09:38.866Z,29.87
2019-01-20T20:12:32.592Z,22.00
2019-01-20T20:25:01.518Z,25.70
2019-01-20T20:27:50.654Z,23.73
2019-01-20T20:30:49.977Z,24.77
2019-01-20T20:33:37.581Z,25.87
2019-01-20T20:36:26.341Z,24.97
2019-01-20T20:39:19.821Z,23.83
2019-01-20T20:42:08.697Z,23.13
2019-01-20T20:45:00.838Z,24.43
2019-01-20T20:47:51.925Z,24.53
2019-01-20T20:50:41.505Z,34.58
2019-01-20T20:56:44.718Z,23.67
2019-01-20T20:59:34.009Z,20.23
2019-01-20T21:02:24.812Z,20.57
2019-01-20T21:05:15.405Z,22.17
2019-01-20T21:08:03.766Z,24.10
2019-01-20T21:10:52.269Z,25.37
2019-01-20T21:13:39.646Z,30.50
2019-01-20T21:16:28.041Z,31.87
2019-01-20T21:19:15.118Z,25.23
2019-01-20T21:22:03.050Z,26.60
2019-01-20T21:25:00.803Z,24.97
2019-01-20T21:27:48.258Z,24.43
2019-01-20T21:30:36.538Z,23.03
2019-01-20T21:33:24.400Z,21.43
2019-01-20T21:36:19.837Z,23.47
2019-01-20T21:39:07.955Z,19.67
2019-01-20T21:41:55.401Z,20.03
2019-01-20T21:44:43.853Z,20.27
2019-01-20T21:47:31.268Z,19.83
2019-01-20T21:50:19.715Z,21.00
2019-01-20T21:53:06.845Z,20.43
2019-01-20T21:55:53.779Z,21.17
2019-01-20T21:58:41.653Z,20.00
2019-01-20T22:01:29.389Z,21.40
2019-01-20T22:04:17.168Z,21.93
2019-01-20T22:07:04.555Z,32.50
2019-01-20T22:12:58.606Z,21.60
2019-01-20T22:15:45.705Z,21.07
2019-01-20T22:18:32.959Z,21.30
2019-01-20T22:21:21.223Z,33.15
2019-01-20T22:27:14.381Z,22.10
2019-01-20T22:30:03.019Z,22.03
2019-01-20T22:32:51.581Z,19.93
2019-01-20T22:35:39.816Z,20.97
2019-01-20T22:38:28.734Z,19.70
2019-01-20T22:44:22.576Z,22.73
2019-01-20T22:50:23.483Z,25.87
2019-01-20T22:53:10.687Z,29.70
2019-01-20T22:55:58.175Z,31.23
2019-01-20T22:58:47.936Z,32.20
2019-01-20T23:04:41.540Z,23.30
2019-01-20T23:07:29.384Z,23.40
2019-01-20T23:13:23.118Z,33.33
2019-01-20T23:16:23.030Z,25.90
2019-01-20T23:22:19.284Z,40.20
2019-01-20T23:25:06.941Z,28.57
2019-01-20T23:27:55.328Z,26.63
2019-01-20T23:33:49.321Z,24.87
2019-01-20T23:36:36.916Z,24.53
2019-01-20T23:39:24.713Z,26.50
2019-01-20T23:42:12.089Z,26.77
2019-01-20T23:45:01.016Z,27.40
2019-01-20T23:50:54.851Z,27.33
2019-01-20T23:53:42.021Z,49.10
2019-01-20T23:56:29.608Z,33.07
2019-01-20T23:59:17.530Z,30.30
